sensor_id;sensor_type;location;lat;lon;timestamp;P1;durP1;ratioP1;P2;durP2;ratioP2
57337;SDS011;43173;50.980;18.204;2023-08-06T00:01:33;5.20;;;4.60;;
57337;SDS011;43173;50.980;18.204;2023-08-06T00:03:59;6.90;;;4.60;;
57337;SDS011;43173;50.980;18.204;2023-08-06T00:06:26;6.90;;;5.20;;
57337;SDS011;43173;50.980;18.204;2023-08-06T00:08:51;7.70;;;4.90;;
57337;SDS011;43173;50.980;18.204;2023-08-06T00:11:17;5.90;;;4.90;;
57337;SDS011;43173;50.980;18.204;2023-08-06T00:13:42;4.90;;;4.00;;
57337;SDS011;43173;50.980;18.204;2023-08-06T00:16:09;5.10;;;4.60;;
57337;SDS011;43173;50.980;18.204;2023-08-06T00:18:35;9.50;;;5.20;;
57337;SDS011;43173;50.980;18.204;2023-08-06T00:21:01;6.80;;;5.00;;
57337;SDS011;43173;50.980;18.204;2023-08-06T00:23:26;5.70;;;5.10;;
57337;SDS011;43173;50.980;18.204;2023-08-06T00:25:52;6.50;;;5.20;;
57337;SDS011;43173;50.980;18.204;2023-08-06T00:28:17;8.90;;;5.50;;
57337;SDS011;43173;50.980;18.204;2023-08-06T00:30:43;9.30;;;5.50;;
57337;SDS011;43173;50.980;18.204;2023-08-06T00:33:09;10.00;;;5.80;;
57337;SDS011;43173;50.980;18.204;2023-08-06T00:35:34;9.60;;;5.80;;
57337;SDS011;43173;50.980;18.204;2023-08-06T00:38:00;7.20;;;6.40;;
57337;SDS011;43173;50.980;18.204;2023-08-06T00:40:25;7.70;;;5.40;;
57337;SDS011;43173;50.980;18.204;2023-08-06T00:42:53;6.90;;;6.10;;
57337;SDS011;43173;50.980;18.204;2023-08-06T00:45:19;8.70;;;6.10;;
57337;SDS011;43173;50.980;18.204;2023-08-06T00:47:45;10.20;;;6.50;;
57337;SDS011;43173;50.980;18.204;2023-08-06T00:50:12;8.00;;;6.00;;
57337;SDS011;43173;50.980;18.204;2023-08-06T00:52:38;8.00;;;5.70;;
57337;SDS011;43173;50.980;18.204;2023-08-06T00:55:03;8.00;;;6.80;;
57337;SDS011;43173;50.980;18.204;2023-08-06T00:57:30;10.80;;;6.60;;
57337;SDS011;43173;50.980;18.204;2023-08-06T00:59:57;11.80;;;6.50;;
57337;SDS011;43173;50.980;18.204;2023-08-06T01:02:23;10.00;;;6.70;;
57337;SDS011;43173;50.980;18.204;2023-08-06T01:04:48;9.70;;;6.50;;
57337;SDS011;43173;50.980;18.204;2023-08-06T01:15:32;8.90;;;8.00;;
57337;SDS011;43173;50.980;18.204;2023-08-06T01:18:00;12.00;;;7.70;;
57337;SDS011;43173;50.980;18.204;2023-08-06T01:20:29;11.90;;;9.10;;
57337;SDS011;43173;50.980;18.204;2023-08-06T01:22:56;14.60;;;9.60;;
57337;SDS011;43173;50.980;18.204;2023-08-06T01:25:22;13.80;;;9.20;;
57337;SDS011;43173;50.980;18.204;2023-08-06T01:27:55;13.10;;;9.60;;
57337;SDS011;43173;50.980;18.204;2023-08-06T01:30:29;16.70;;;9.90;;
57337;SDS011;43173;50.980;18.204;2023-08-06T01:32:59;15.20;;;11.00;;
57337;SDS011;43173;50.980;18.204;2023-08-06T01:35:26;15.30;;;10.60;;
57337;SDS011;43173;50.980;18.204;2023-08-06T01:37:53;15.10;;;11.00;;
57337;SDS011;43173;50.980;18.204;2023-08-06T01:40:19;14.80;;;10.30;;
57337;SDS011;43173;50.980;18.204;2023-08-06T01:42:45;15.00;;;11.10;;
57337;SDS011;43173;50.980;18.204;2023-08-06T01:45:11;21.20;;;12.50;;
57337;SDS011;43173;50.980;18.204;2023-08-06T01:47:37;17.90;;;12.00;;
57337;SDS011;43173;50.980;18.204;2023-08-06T01:50:02;26.40;;;12.20;;
57337;SDS011;43173;50.980;18.204;2023-08-06T01:52:29;27.30;;;12.20;;
57337;SDS011;43173;50.980;18.204;2023-08-06T01:54:55;29.70;;;12.70;;
57337;SDS011;43173;50.980;18.204;2023-08-06T01:57:20;19.80;;;11.90;;
57337;SDS011;43173;50.980;18.204;2023-08-06T01:59:46;23.10;;;12.20;;
57337;SDS011;43173;50.980;18.204;2023-08-06T02:02:12;20.90;;;12.10;;
57337;SDS011;43173;50.980;18.204;2023-08-06T02:04:38;20.00;;;12.70;;
57337;SDS011;43173;50.980;18.204;2023-08-06T02:07:04;21.50;;;13.30;;
57337;SDS011;43173;50.980;18.204;2023-08-06T02:09:30;19.50;;;13.40;;
57337;SDS011;43173;50.980;18.204;2023-08-06T02:11:55;31.00;;;14.00;;
57337;SDS011;43173;50.980;18.204;2023-08-06T02:14:21;35.00;;;14.10;;
57337;SDS011;43173;50.980;18.204;2023-08-06T02:16:47;35.30;;;13.60;;
57337;SDS011;43173;50.980;18.204;2023-08-06T02:19:14;46.30;;;13.90;;
57337;SDS011;43173;50.980;18.204;2023-08-06T02:21:39;32.40;;;14.00;;
57337;SDS011;43173;50.980;18.204;2023-08-06T02:24:05;30.50;;;13.40;;
57337;SDS011;43173;50.980;18.204;2023-08-06T02:26:31;20.10;;;11.60;;
57337;SDS011;43173;50.980;18.204;2023-08-06T02:28:56;26.30;;;13.70;;
57337;SDS011;43173;50.980;18.204;2023-08-06T02:31:22;29.40;;;13.60;;
57337;SDS011;43173;50.980;18.204;2023-08-06T02:33:47;35.70;;;14.50;;
57337;SDS011;43173;50.980;18.204;2023-08-06T02:36:13;45.00;;;14.60;;
57337;SDS011;43173;50.980;18.204;2023-08-06T02:38:39;40.70;;;14.80;;
57337;SDS011;43173;50.980;18.204;2023-08-06T02:41:04;39.30;;;14.40;;
57337;SDS011;43173;50.980;18.204;2023-08-06T02:43:30;35.30;;;12.10;;
57337;SDS011;43173;50.980;18.204;2023-08-06T02:45:59;48.20;;;14.30;;
57337;SDS011;43173;50.980;18.204;2023-08-06T02:48:25;25.00;;;11.90;;
57337;SDS011;43173;50.980;18.204;2023-08-06T02:50:51;31.30;;;13.80;;
57337;SDS011;43173;50.980;18.204;2023-08-06T02:53:17;30.10;;;13.70;;
57337;SDS011;43173;50.980;18.204;2023-08-06T02:55:46;30.80;;;14.20;;
57337;SDS011;43173;50.980;18.204;2023-08-06T02:58:13;24.80;;;14.00;;
57337;SDS011;43173;50.980;18.204;2023-08-06T03:00:40;28.40;;;13.90;;
57337;SDS011;43173;50.980;18.204;2023-08-06T03:03:06;19.30;;;12.70;;
57337;SDS011;43173;50.980;18.204;2023-08-06T03:05:31;34.20;;;14.30;;
57337;SDS011;43173;50.980;18.204;2023-08-06T03:07:57;26.40;;;14.50;;
57337;SDS011;43173;50.980;18.204;2023-08-06T03:10:23;25.20;;;14.00;;
57337;SDS011;43173;50.980;18.204;2023-08-06T03:12:48;26.10;;;13.30;;
57337;SDS011;43173;50.980;18.204;2023-08-06T03:15:14;28.00;;;14.10;;
57337;SDS011;43173;50.980;18.204;2023-08-06T03:17:40;23.70;;;13.90;;
57337;SDS011;43173;50.980;18.204;2023-08-06T03:20:06;27.20;;;14.70;;
57337;SDS011;43173;50.980;18.204;2023-08-06T03:22:32;26.60;;;14.00;;
57337;SDS011;43173;50.980;18.204;2023-08-06T03:24:58;28.50;;;14.00;;
57337;SDS011;43173;50.980;18.204;2023-08-06T03:27:24;20.50;;;13.70;;
57337;SDS011;43173;50.980;18.204;2023-08-06T03:29:49;28.90;;;14.40;;
57337;SDS011;43173;50.980;18.204;2023-08-06T03:32:15;35.10;;;15.10;;
57337;SDS011;43173;50.980;18.204;2023-08-06T03:34:41;21.30;;;13.30;;
57337;SDS011;43173;50.980;18.204;2023-08-06T03:37:07;28.60;;;14.60;;
57337;SDS011;43173;50.980;18.204;2023-08-06T03:39:33;30.10;;;15.50;;
57337;SDS011;43173;50.980;18.204;2023-08-06T03:41:59;32.20;;;16.10;;
57337;SDS011;43173;50.980;18.204;2023-08-06T03:44:24;32.40;;;15.40;;
57337;SDS011;43173;50.980;18.204;2023-08-06T03:46:52;30.00;;;16.20;;
57337;SDS011;43173;50.980;18.204;2023-08-06T03:49:18;27.30;;;14.90;;
57337;SDS011;43173;50.980;18.204;2023-08-06T03:51:43;24.10;;;13.50;;
57337;SDS011;43173;50.980;18.204;2023-08-06T03:54:09;21.10;;;13.80;;
57337;SDS011;43173;50.980;18.204;2023-08-06T03:56:35;24.20;;;15.00;;
57337;SDS011;43173;50.980;18.204;2023-08-06T03:59:00;23.50;;;15.60;;
57337;SDS011;43173;50.980;18.204;2023-08-06T04:01:26;22.00;;;13.80;;
57337;SDS011;43173;50.980;18.204;2023-08-06T04:03:52;17.00;;;13.40;;
57337;SDS011;43173;50.980;18.204;2023-08-06T04:06:18;20.90;;;13.40;;
57337;SDS011;43173;50.980;18.204;2023-08-06T04:08:45;20.60;;;14.40;;
57337;SDS011;43173;50.980;18.204;2023-08-06T04:11:11;24.40;;;14.60;;
57337;SDS011;43173;50.980;18.204;2023-08-06T04:13:41;19.90;;;14.40;;
57337;SDS011;43173;50.980;18.204;2023-08-06T04:16:08;21.80;;;15.00;;
57337;SDS011;43173;50.980;18.204;2023-08-06T04:18:33;20.30;;;15.20;;
57337;SDS011;43173;50.980;18.204;2023-08-06T04:20:59;22.60;;;15.60;;
57337;SDS011;43173;50.980;18.204;2023-08-06T04:23:27;20.10;;;14.70;;
57337;SDS011;43173;50.980;18.204;2023-08-06T04:25:56;22.20;;;16.50;;
57337;SDS011;43173;50.980;18.204;2023-08-06T04:28:22;24.80;;;16.60;;
57337;SDS011;43173;50.980;18.204;2023-08-06T04:30:56;23.90;;;15.70;;
57337;SDS011;43173;50.980;18.204;2023-08-06T04:33:23;23.00;;;14.90;;
57337;SDS011;43173;50.980;18.204;2023-08-06T04:35:53;21.80;;;15.50;;
57337;SDS011;43173;50.980;18.204;2023-08-06T04:38:20;18.70;;;15.10;;
57337;SDS011;43173;50.980;18.204;2023-08-06T04:40:46;21.20;;;15.10;;
57337;SDS011;43173;50.980;18.204;2023-08-06T04:43:12;21.70;;;15.20;;
57337;SDS011;43173;50.980;18.204;2023-08-06T04:45:38;16.50;;;13.00;;
57337;SDS011;43173;50.980;18.204;2023-08-06T04:48:05;21.30;;;14.80;;
57337;SDS011;43173;50.980;18.204;2023-08-06T04:50:31;20.00;;;14.60;;
57337;SDS011;43173;50.980;18.204;2023-08-06T04:52:57;19.30;;;14.40;;
57337;SDS011;43173;50.980;18.204;2023-08-06T04:55:23;19.10;;;14.60;;
57337;SDS011;43173;50.980;18.204;2023-08-06T04:57:49;18.80;;;13.80;;
57337;SDS011;43173;50.980;18.204;2023-08-06T05:00:14;16.90;;;13.40;;
57337;SDS011;43173;50.980;18.204;2023-08-06T05:02:40;18.30;;;13.10;;
57337;SDS011;43173;50.980;18.204;2023-08-06T05:05:06;16.10;;;12.70;;
57337;SDS011;43173;50.980;18.204;2023-08-06T05:07:33;18.40;;;13.30;;
57337;SDS011;43173;50.980;18.204;2023-08-06T05:09:59;16.40;;;12.50;;
57337;SDS011;43173;50.980;18.204;2023-08-06T05:12:25;18.60;;;12.60;;
57337;SDS011;43173;50.980;18.204;2023-08-06T05:14:50;14.50;;;11.30;;
57337;SDS011;43173;50.980;18.204;2023-08-06T05:17:16;15.00;;;12.00;;
57337;SDS011;43173;50.980;18.204;2023-08-06T05:19:42;14.40;;;11.90;;
57337;SDS011;43173;50.980;18.204;2023-08-06T05:22:08;16.20;;;11.90;;
57337;SDS011;43173;50.980;18.204;2023-08-06T05:24:33;13.20;;;10.40;;
57337;SDS011;43173;50.980;18.204;2023-08-06T05:26:59;14.60;;;10.90;;
57337;SDS011;43173;50.980;18.204;2023-08-06T05:29:25;13.60;;;11.30;;
57337;SDS011;43173;50.980;18.204;2023-08-06T05:31:52;13.60;;;11.30;;
57337;SDS011;43173;50.980;18.204;2023-08-06T05:34:18;15.00;;;11.10;;
57337;SDS011;43173;50.980;18.204;2023-08-06T05:36:44;13.50;;;10.80;;
57337;SDS011;43173;50.980;18.204;2023-08-06T05:39:10;11.90;;;10.30;;
57337;SDS011;43173;50.980;18.204;2023-08-06T05:41:35;12.80;;;10.90;;
57337;SDS011;43173;50.980;18.204;2023-08-06T05:44:01;10.80;;;9.00;;
57337;SDS011;43173;50.980;18.204;2023-08-06T05:46:27;12.60;;;10.10;;
57337;SDS011;43173;50.980;18.204;2023-08-06T05:48:52;11.00;;;9.60;;
57337;SDS011;43173;50.980;18.204;2023-08-06T05:51:18;12.00;;;9.10;;
57337;SDS011;43173;50.980;18.204;2023-08-06T05:53:44;12.70;;;9.50;;
57337;SDS011;43173;50.980;18.204;2023-08-06T05:56:12;11.80;;;9.10;;
57337;SDS011;43173;50.980;18.204;2023-08-06T05:58:38;9.40;;;8.50;;
57337;SDS011;43173;50.980;18.204;2023-08-06T06:01:03;10.00;;;7.90;;
57337;SDS011;43173;50.980;18.204;2023-08-06T06:03:29;10.10;;;8.30;;
57337;SDS011;43173;50.980;18.204;2023-08-06T06:05:55;9.80;;;8.20;;
57337;SDS011;43173;50.980;18.204;2023-08-06T06:08:21;8.70;;;7.80;;
57337;SDS011;43173;50.980;18.204;2023-08-06T06:10:47;8.00;;;6.30;;
57337;SDS011;43173;50.980;18.204;2023-08-06T06:13:12;8.40;;;7.50;;
57337;SDS011;43173;50.980;18.204;2023-08-06T06:15:38;9.90;;;6.90;;
57337;SDS011;43173;50.980;18.204;2023-08-06T06:18:04;8.90;;;6.80;;
57337;SDS011;43173;50.980;18.204;2023-08-06T06:20:31;7.10;;;5.80;;
57337;SDS011;43173;50.980;18.204;2023-08-06T06:22:58;5.80;;;4.60;;
57337;SDS011;43173;50.980;18.204;2023-08-06T06:25:24;5.40;;;4.10;;
57337;SDS011;43173;50.980;18.204;2023-08-06T06:27:49;4.80;;;2.80;;
57337;SDS011;43173;50.980;18.204;2023-08-06T06:30:15;3.20;;;1.90;;
57337;SDS011;43173;50.980;18.204;2023-08-06T06:32:41;10.50;;;2.00;;
57337;SDS011;43173;50.980;18.204;2023-08-06T06:35:07;1.80;;;1.40;;
57337;SDS011;43173;50.980;18.204;2023-08-06T06:37:33;2.00;;;1.00;;
57337;SDS011;43173;50.980;18.204;2023-08-06T06:39:59;3.60;;;1.30;;
57337;SDS011;43173;50.980;18.204;2023-08-06T06:42:25;1.90;;;0.80;;
57337;SDS011;43173;50.980;18.204;2023-08-06T06:44:51;1.10;;;0.50;;
57337;SDS011;43173;50.980;18.204;2023-08-06T06:47:17;2.50;;;0.50;;
57337;SDS011;43173;50.980;18.204;2023-08-06T06:49:43;1.10;;;0.50;;
57337;SDS011;43173;50.980;18.204;2023-08-06T06:52:09;1.40;;;0.40;;
57337;SDS011;43173;50.980;18.204;2023-08-06T06:54:34;0.50;;;0.50;;
57337;SDS011;43173;50.980;18.204;2023-08-06T06:57:00;1.90;;;0.40;;
57337;SDS011;43173;50.980;18.204;2023-08-06T06:59:26;2.30;;;0.50;;
57337;SDS011;43173;50.980;18.204;2023-08-06T07:01:52;1.00;;;0.70;;
57337;SDS011;43173;50.980;18.204;2023-08-06T07:04:18;1.00;;;0.30;;
57337;SDS011;43173;50.980;18.204;2023-08-06T07:06:44;1.30;;;0.50;;
57337;SDS011;43173;50.980;18.204;2023-08-06T07:09:10;1.80;;;0.30;;
57337;SDS011;43173;50.980;18.204;2023-08-06T07:11:36;0.90;;;0.80;;
57337;SDS011;43173;50.980;18.204;2023-08-06T07:14:01;1.30;;;0.90;;
57337;SDS011;43173;50.980;18.204;2023-08-06T07:16:28;0.90;;;0.80;;
57337;SDS011;43173;50.980;18.204;2023-08-06T07:18:55;1.90;;;1.10;;
57337;SDS011;43173;50.980;18.204;2023-08-06T07:21:20;3.80;;;1.00;;
57337;SDS011;43173;50.980;18.204;2023-08-06T07:23:47;2.40;;;0.70;;
57337;SDS011;43173;50.980;18.204;2023-08-06T07:26:15;1.50;;;0.40;;
57337;SDS011;43173;50.980;18.204;2023-08-06T07:28:41;0.80;;;0.30;;
57337;SDS011;43173;50.980;18.204;2023-08-06T07:31:07;1.90;;;0.30;;
57337;SDS011;43173;50.980;18.204;2023-08-06T07:33:33;2.00;;;0.10;;
57337;SDS011;43173;50.980;18.204;2023-08-06T07:35:59;0.20;;;0.20;;
57337;SDS011;43173;50.980;18.204;2023-08-06T07:38:25;0.60;;;0.20;;
57337;SDS011;43173;50.980;18.204;2023-08-06T07:40:51;2.80;;;0.40;;
57337;SDS011;43173;50.980;18.204;2023-08-06T07:43:17;4.80;;;0.40;;
57337;SDS011;43173;50.980;18.204;2023-08-06T07:45:43;0.50;;;0.40;;
57337;SDS011;43173;50.980;18.204;2023-08-06T07:48:09;1.20;;;0.30;;
57337;SDS011;43173;50.980;18.204;2023-08-06T07:50:35;3.40;;;0.20;;
57337;SDS011;43173;50.980;18.204;2023-08-06T07:53:01;0.10;;;0.10;;
57337;SDS011;43173;50.980;18.204;2023-08-06T07:55:27;1.70;;;0.20;;
57337;SDS011;43173;50.980;18.204;2023-08-06T07:57:53;0.40;;;0.10;;
57337;SDS011;43173;50.980;18.204;2023-08-06T08:00:19;2.00;;;0.10;;
57337;SDS011;43173;50.980;18.204;2023-08-06T08:02:44;1.00;;;0.30;;
57337;SDS011;43173;50.980;18.204;2023-08-06T08:05:11;0.50;;;0.20;;
57337;SDS011;43173;50.980;18.204;2023-08-06T08:07:37;0.90;;;0.20;;
57337;SDS011;43173;50.980;18.204;2023-08-06T08:10:03;2.50;;;0.20;;
57337;SDS011;43173;50.980;18.204;2023-08-06T08:12:30;0.50;;;0.20;;
57337;SDS011;43173;50.980;18.204;2023-08-06T08:14:56;0.30;;;0.20;;
57337;SDS011;43173;50.980;18.204;2023-08-06T08:17:22;0.10;;;0.10;;
57337;SDS011;43173;50.980;18.204;2023-08-06T08:19:50;0.30;;;0.10;;
57337;SDS011;43173;50.980;18.204;2023-08-06T08:22:16;1.00;;;0.20;;
57337;SDS011;43173;50.980;18.204;2023-08-06T08:24:41;0.50;;;0.20;;
57337;SDS011;43173;50.980;18.204;2023-08-06T08:27:10;0.80;;;0.20;;
57337;SDS011;43173;50.980;18.204;2023-08-06T08:29:36;0.50;;;0.10;;
57337;SDS011;43173;50.980;18.204;2023-08-06T08:32:02;1.50;;;0.20;;
57337;SDS011;43173;50.980;18.204;2023-08-06T08:34:28;0.80;;;0.40;;
57337;SDS011;43173;50.980;18.204;2023-08-06T08:36:54;1.30;;;0.10;;
57337;SDS011;43173;50.980;18.204;2023-08-06T08:39:19;0.40;;;0.30;;
57337;SDS011;43173;50.980;18.204;2023-08-06T08:41:45;2.30;;;0.20;;
57337;SDS011;43173;50.980;18.204;2023-08-06T08:44:11;1.30;;;0.30;;
57337;SDS011;43173;50.980;18.204;2023-08-06T08:46:40;0.70;;;0.20;;
57337;SDS011;43173;50.980;18.204;2023-08-06T08:49:07;2.40;;;0.40;;
57337;SDS011;43173;50.980;18.204;2023-08-06T08:51:33;2.10;;;0.40;;
57337;SDS011;43173;50.980;18.204;2023-08-06T08:54:02;1.20;;;0.20;;
57337;SDS011;43173;50.980;18.204;2023-08-06T08:56:28;0.30;;;0.10;;
57337;SDS011;43173;50.980;18.204;2023-08-06T08:58:54;0.80;;;0.50;;
57337;SDS011;43173;50.980;18.204;2023-08-06T09:01:21;0.30;;;0.30;;
57337;SDS011;43173;50.980;18.204;2023-08-06T09:03:47;4.00;;;0.50;;
57337;SDS011;43173;50.980;18.204;2023-08-06T09:06:13;0.30;;;0.30;;
57337;SDS011;43173;50.980;18.204;2023-08-06T09:08:41;0.50;;;0.20;;
57337;SDS011;43173;50.980;18.204;2023-08-06T09:11:11;2.00;;;0.30;;
57337;SDS011;43173;50.980;18.204;2023-08-06T09:13:37;0.80;;;0.20;;
57337;SDS011;43173;50.980;18.204;2023-08-06T09:16:04;0.40;;;0.40;;
57337;SDS011;43173;50.980;18.204;2023-08-06T09:18:30;5.40;;;0.70;;
57337;SDS011;43173;50.980;18.204;2023-08-06T09:20:57;0.50;;;0.40;;
57337;SDS011;43173;50.980;18.204;2023-08-06T09:23:32;0.40;;;0.40;;
57337;SDS011;43173;50.980;18.204;2023-08-06T09:25:59;5.30;;;0.60;;
57337;SDS011;43173;50.980;18.204;2023-08-06T09:28:36;0.70;;;0.70;;
57337;SDS011;43173;50.980;18.204;2023-08-06T09:31:03;2.90;;;0.50;;
57337;SDS011;43173;50.980;18.204;2023-08-06T09:33:29;1.70;;;0.60;;
57337;SDS011;43173;50.980;18.204;2023-08-06T09:35:54;2.20;;;1.60;;
57337;SDS011;43173;50.980;18.204;2023-08-06T09:38:20;1.50;;;0.90;;
57337;SDS011;43173;50.980;18.204;2023-08-06T09:40:46;3.00;;;0.80;;
57337;SDS011;43173;50.980;18.204;2023-08-06T09:43:12;1.10;;;0.60;;
57337;SDS011;43173;50.980;18.204;2023-08-06T09:45:39;0.60;;;0.20;;
57337;SDS011;43173;50.980;18.204;2023-08-06T09:48:05;0.50;;;0.30;;
57337;SDS011;43173;50.980;18.204;2023-08-06T09:50:32;0.40;;;0.40;;
57337;SDS011;43173;50.980;18.204;2023-08-06T09:53:00;6.80;;;0.90;;
57337;SDS011;43173;50.980;18.204;2023-08-06T09:55:27;2.60;;;0.50;;
57337;SDS011;43173;50.980;18.204;2023-08-06T09:57:53;2.10;;;0.50;;
57337;SDS011;43173;50.980;18.204;2023-08-06T10:00:20;1.60;;;0.50;;
57337;SDS011;43173;50.980;18.204;2023-08-06T10:02:46;1.20;;;0.50;;
57337;SDS011;43173;50.980;18.204;2023-08-06T10:05:12;2.40;;;0.50;;
57337;SDS011;43173;50.980;18.204;2023-08-06T10:07:38;0.70;;;0.50;;
57337;SDS011;43173;50.980;18.204;2023-08-06T10:12:41;0.20;;;0.20;;
57337;SDS011;43173;50.980;18.204;2023-08-06T10:15:11;0.50;;;0.30;;
57337;SDS011;43173;50.980;18.204;2023-08-06T10:17:39;0.30;;;0.20;;
57337;SDS011;43173;50.980;18.204;2023-08-06T10:20:07;0.70;;;0.30;;
57337;SDS011;43173;50.980;18.204;2023-08-06T10:22:34;0.40;;;0.40;;
57337;SDS011;43173;50.980;18.204;2023-08-06T10:25:00;0.40;;;0.40;;
57337;SDS011;43173;50.980;18.204;2023-08-06T10:32:51;0.70;;;0.30;;
57337;SDS011;43173;50.980;18.204;2023-08-06T10:38:20;1.50;;;0.50;;
57337;SDS011;43173;50.980;18.204;2023-08-06T10:46:03;0.30;;;0.30;;
57337;SDS011;43173;50.980;18.204;2023-08-06T10:48:38;2.90;;;0.30;;
57337;SDS011;43173;50.980;18.204;2023-08-06T10:51:12;0.50;;;0.40;;
57337;SDS011;43173;50.980;18.204;2023-08-06T10:53:41;0.70;;;0.30;;
57337;SDS011;43173;50.980;18.204;2023-08-06T10:56:16;0.30;;;0.20;;
57337;SDS011;43173;50.980;18.204;2023-08-06T10:58:46;2.00;;;0.40;;
57337;SDS011;43173;50.980;18.204;2023-08-06T11:01:12;0.60;;;0.40;;
57337;SDS011;43173;50.980;18.204;2023-08-06T11:03:38;0.80;;;0.40;;
57337;SDS011;43173;50.980;18.204;2023-08-06T11:06:06;0.50;;;0.30;;
57337;SDS011;43173;50.980;18.204;2023-08-06T11:21:28;0.50;;;0.40;;
57337;SDS011;43173;50.980;18.204;2023-08-06T11:23:55;0.30;;;0.30;;
57337;SDS011;43173;50.980;18.204;2023-08-06T11:26:21;0.30;;;0.30;;
57337;SDS011;43173;50.980;18.204;2023-08-06T11:28:48;0.40;;;0.30;;
57337;SDS011;43173;50.980;18.204;2023-08-06T11:31:18;0.50;;;0.30;;
57337;SDS011;43173;50.980;18.204;2023-08-06T11:33:46;1.50;;;0.30;;
57337;SDS011;43173;50.980;18.204;2023-08-06T11:36:13;0.30;;;0.30;;
57337;SDS011;43173;50.980;18.204;2023-08-06T11:38:38;1.00;;;0.80;;
57337;SDS011;43173;50.980;18.204;2023-08-06T11:41:04;1.50;;;0.70;;
57337;SDS011;43173;50.980;18.204;2023-08-06T11:43:31;1.50;;;0.70;;
57337;SDS011;43173;50.980;18.204;2023-08-06T11:45:58;0.90;;;0.50;;
57337;SDS011;43173;50.980;18.204;2023-08-06T11:48:25;0.60;;;0.60;;
57337;SDS011;43173;50.980;18.204;2023-08-06T11:50:54;1.00;;;0.90;;
57337;SDS011;43173;50.980;18.204;2023-08-06T11:53:20;1.50;;;1.10;;
57337;SDS011;43173;50.980;18.204;2023-08-06T11:55:45;1.10;;;0.90;;
57337;SDS011;43173;50.980;18.204;2023-08-06T11:58:11;1.20;;;1.00;;
57337;SDS011;43173;50.980;18.204;2023-08-06T12:00:38;0.60;;;0.60;;
57337;SDS011;43173;50.980;18.204;2023-08-06T12:03:04;2.70;;;0.70;;
57337;SDS011;43173;50.980;18.204;2023-08-06T12:05:31;0.50;;;0.40;;
57337;SDS011;43173;50.980;18.204;2023-08-06T12:07:59;1.20;;;0.70;;
57337;SDS011;43173;50.980;18.204;2023-08-06T12:10:26;0.90;;;0.60;;
57337;SDS011;43173;50.980;18.204;2023-08-06T12:12:54;0.80;;;0.80;;
57337;SDS011;43173;50.980;18.204;2023-08-06T12:15:20;1.40;;;0.90;;
57337;SDS011;43173;50.980;18.204;2023-08-06T12:17:47;0.60;;;0.60;;
57337;SDS011;43173;50.980;18.204;2023-08-06T12:20:12;1.30;;;1.00;;
57337;SDS011;43173;50.980;18.204;2023-08-06T12:22:38;1.70;;;1.20;;
57337;SDS011;43173;50.980;18.204;2023-08-06T12:25:06;0.90;;;0.90;;
57337;SDS011;43173;50.980;18.204;2023-08-06T12:27:37;1.60;;;1.00;;
57337;SDS011;43173;50.980;18.204;2023-08-06T12:30:05;1.10;;;1.00;;
57337;SDS011;43173;50.980;18.204;2023-08-06T12:32:31;1.40;;;1.30;;
57337;SDS011;43173;50.980;18.204;2023-08-06T12:34:58;3.00;;;1.80;;
57337;SDS011;43173;50.980;18.204;2023-08-06T12:37:24;1.90;;;1.70;;
57337;SDS011;43173;50.980;18.204;2023-08-06T12:39:50;3.10;;;2.00;;
57337;SDS011;43173;50.980;18.204;2023-08-06T12:42:16;1.70;;;1.40;;
57337;SDS011;43173;50.980;18.204;2023-08-06T12:44:42;1.70;;;1.60;;
57337;SDS011;43173;50.980;18.204;2023-08-06T12:47:08;3.70;;;1.80;;
57337;SDS011;43173;50.980;18.204;2023-08-06T12:49:33;2.00;;;1.90;;
57337;SDS011;43173;50.980;18.204;2023-08-06T12:51:59;1.70;;;1.60;;
57337;SDS011;43173;50.980;18.204;2023-08-06T12:54:25;2.30;;;2.10;;
57337;SDS011;43173;50.980;18.204;2023-08-06T12:56:51;1.90;;;1.60;;
57337;SDS011;43173;50.980;18.204;2023-08-06T12:59:17;2.70;;;1.70;;
57337;SDS011;43173;50.980;18.204;2023-08-06T13:01:43;1.40;;;1.30;;
57337;SDS011;43173;50.980;18.204;2023-08-06T13:04:09;2.10;;;1.50;;
57337;SDS011;43173;50.980;18.204;2023-08-06T13:06:35;1.50;;;1.40;;
57337;SDS011;43173;50.980;18.204;2023-08-06T13:09:08;1.10;;;1.10;;
57337;SDS011;43173;50.980;18.204;2023-08-06T13:11:35;1.20;;;1.10;;
57337;SDS011;43173;50.980;18.204;2023-08-06T13:19:09;1.20;;;1.00;;
57337;SDS011;43173;50.980;18.204;2023-08-06T13:24:08;0.70;;;0.70;;
57337;SDS011;43173;50.980;18.204;2023-08-06T13:26:34;1.10;;;0.90;;
57337;SDS011;43173;50.980;18.204;2023-08-06T13:29:00;0.50;;;0.40;;
57337;SDS011;43173;50.980;18.204;2023-08-06T13:31:26;0.90;;;0.70;;
57337;SDS011;43173;50.980;18.204;2023-08-06T13:33:54;0.70;;;0.70;;
57337;SDS011;43173;50.980;18.204;2023-08-06T13:36:21;0.60;;;0.60;;
57337;SDS011;43173;50.980;18.204;2023-08-06T13:38:48;0.80;;;0.60;;
57337;SDS011;43173;50.980;18.204;2023-08-06T13:41:14;0.50;;;0.50;;
57337;SDS011;43173;50.980;18.204;2023-08-06T13:43:40;0.60;;;0.60;;
57337;SDS011;43173;50.980;18.204;2023-08-06T13:46:06;0.80;;;0.80;;
57337;SDS011;43173;50.980;18.204;2023-08-06T13:48:32;1.80;;;0.70;;
57337;SDS011;43173;50.980;18.204;2023-08-06T13:50:58;1.20;;;0.40;;
57337;SDS011;43173;50.980;18.204;2023-08-06T13:53:23;1.80;;;0.90;;
57337;SDS011;43173;50.980;18.204;2023-08-06T13:55:55;1.70;;;0.80;;
57337;SDS011;43173;50.980;18.204;2023-08-06T13:58:22;1.70;;;0.70;;
57337;SDS011;43173;50.980;18.204;2023-08-06T14:00:47;0.80;;;0.50;;
57337;SDS011;43173;50.980;18.204;2023-08-06T14:03:13;0.60;;;0.50;;
57337;SDS011;43173;50.980;18.204;2023-08-06T14:05:39;0.50;;;0.40;;
57337;SDS011;43173;50.980;18.204;2023-08-06T14:08:04;0.40;;;0.40;;
57337;SDS011;43173;50.980;18.204;2023-08-06T14:10:30;0.60;;;0.60;;
57337;SDS011;43173;50.980;18.204;2023-08-06T14:12:56;0.50;;;0.50;;
57337;SDS011;43173;50.980;18.204;2023-08-06T14:15:21;0.40;;;0.40;;
57337;SDS011;43173;50.980;18.204;2023-08-06T14:17:47;0.60;;;0.60;;
57337;SDS011;43173;50.980;18.204;2023-08-06T14:20:12;0.50;;;0.50;;
57337;SDS011;43173;50.980;18.204;2023-08-06T14:22:38;0.40;;;0.40;;
57337;SDS011;43173;50.980;18.204;2023-08-06T14:25:04;0.60;;;0.60;;
57337;SDS011;43173;50.980;18.204;2023-08-06T14:27:30;0.50;;;0.50;;
57337;SDS011;43173;50.980;18.204;2023-08-06T14:29:56;0.40;;;0.40;;
57337;SDS011;43173;50.980;18.204;2023-08-06T14:32:21;0.50;;;0.40;;
57337;SDS011;43173;50.980;18.204;2023-08-06T14:34:47;0.80;;;0.50;;
57337;SDS011;43173;50.980;18.204;2023-08-06T14:37:13;1.10;;;0.50;;
57337;SDS011;43173;50.980;18.204;2023-08-06T14:39:38;0.40;;;0.30;;
57337;SDS011;43173;50.980;18.204;2023-08-06T14:42:04;0.40;;;0.40;;
57337;SDS011;43173;50.980;18.204;2023-08-06T14:44:30;0.40;;;0.40;;
57337;SDS011;43173;50.980;18.204;2023-08-06T14:46:56;0.70;;;0.60;;
57337;SDS011;43173;50.980;18.204;2023-08-06T14:49:22;1.10;;;0.50;;
57337;SDS011;43173;50.980;18.204;2023-08-06T14:51:48;0.60;;;0.60;;
57337;SDS011;43173;50.980;18.204;2023-08-06T14:54:14;0.70;;;0.70;;
57337;SDS011;43173;50.980;18.204;2023-08-06T14:56:40;1.00;;;0.80;;
57337;SDS011;43173;50.980;18.204;2023-08-06T14:59:05;0.80;;;0.80;;
57337;SDS011;43173;50.980;18.204;2023-08-06T15:01:31;1.00;;;0.90;;
57337;SDS011;43173;50.980;18.204;2023-08-06T15:03:57;0.80;;;0.80;;
57337;SDS011;43173;50.980;18.204;2023-08-06T15:06:23;0.90;;;0.90;;